createdAt,value
2023-04-27T00:00:27.117Z,33.73
2023-04-27T00:02:55.317Z,33.69
2023-04-27T00:05:23.453Z,34.84
2023-04-27T00:07:51.371Z,34.50
2023-04-27T00:10:19.342Z,33.21
2023-04-27T00:12:48.709Z,33.67
2023-04-27T00:15:16.530Z,33.27
2023-04-27T00:17:44.504Z,32.83
2023-04-27T00:20:12.956Z,33.66
2023-04-27T00:22:41.017Z,33.79
2023-04-27T00:25:09.792Z,33.96
2023-04-27T00:27:37.638Z,33.39
2023-04-27T00:30:08.268Z,33.87
2023-04-27T00:32:36.241Z,34.10
2023-04-27T00:35:04.398Z,33.21
2023-04-27T00:37:32.443Z,33.49
2023-04-27T00:40:00.263Z,34.10
2023-04-27T00:42:28.038Z,34.18
2023-04-27T00:44:58.535Z,33.36
2023-04-27T00:47:27.879Z,33.63
2023-04-27T00:49:55.889Z,33.88
2023-04-27T00:52:27.096Z,34.57
2023-04-27T00:54:55.361Z,34.36
2023-04-27T00:57:23.364Z,36.79
2023-04-27T00:59:51.384Z,34.51
2023-04-27T01:02:19.440Z,33.60
2023-04-27T01:04:50.462Z,33.76
2023-04-27T01:07:18.592Z,34.65
2023-04-27T01:09:46.597Z,34.18
2023-04-27T01:12:14.507Z,33.88
2023-04-27T01:14:43.712Z,32.67
2023-04-27T01:17:11.912Z,33.38
2023-04-27T01:19:40.355Z,33.18
2023-04-27T01:22:09.599Z,34.45
2023-04-27T01:24:38.847Z,33.69
2023-04-27T01:27:06.888Z,34.20
2023-04-27T01:29:34.774Z,34.46
2023-04-27T01:32:03.671Z,35.42
2023-04-27T01:34:33.380Z,33.53
2023-04-27T01:37:01.148Z,33.90
2023-04-27T01:39:29.078Z,34.95
2023-04-27T01:41:58.659Z,35.44
2023-04-27T01:44:26.629Z,35.45
2023-04-27T01:46:55.350Z,36.49
2023-04-27T01:49:23.337Z,35.61
2023-04-27T01:51:51.441Z,34.84
2023-04-27T01:54:19.210Z,35.30
2023-04-27T01:56:47.033Z,35.25
2023-04-27T01:59:16.333Z,35.90
2023-04-27T02:01:44.155Z,34.26
2023-04-27T02:04:12.587Z,35.97
2023-04-27T02:06:41.267Z,35.84
2023-04-27T02:09:09.333Z,35.40
2023-04-27T02:11:40.690Z,36.33
2023-04-27T02:14:08.579Z,36.08
2023-04-27T02:16:38.079Z,36.15
2023-04-27T02:19:05.987Z,35.76
2023-04-27T02:21:33.999Z,35.90
2023-04-27T02:24:01.938Z,37.21
2023-04-27T02:26:30.120Z,36.20
2023-04-27T02:28:59.350Z,36.71
2023-04-27T02:31:28.138Z,35.56
2023-04-27T02:33:57.237Z,36.46
2023-04-27T02:36:27.754Z,36.68
2023-04-27T02:38:56.371Z,36.10
2023-04-27T02:41:24.442Z,35.21
2023-04-27T02:43:52.688Z,36.71
2023-04-27T02:46:20.596Z,37.52
2023-04-27T02:48:48.442Z,35.81
2023-04-27T02:51:17.651Z,35.84
2023-04-27T02:53:45.434Z,35.41
2023-04-27T02:56:13.295Z,36.07
2023-04-27T02:58:41.309Z,35.49
2023-04-27T03:01:10.612Z,35.32
2023-04-27T03:03:38.682Z,35.66
2023-04-27T03:06:07.271Z,35.78
2023-04-27T03:08:36.678Z,35.28
2023-04-27T03:11:12.670Z,35.57
2023-04-27T03:13:42.628Z,35.72
2023-04-27T03:16:11.870Z,34.65
2023-04-27T03:18:40.481Z,35.12
2023-04-27T03:21:09.417Z,35.16
2023-04-27T03:23:39.177Z,34.90
2023-04-27T03:26:07.765Z,36.08
2023-04-27T03:28:36.130Z,35.12
2023-04-27T03:31:06.881Z,35.07
2023-04-27T03:33:35.150Z,35.86
2023-04-27T03:36:04.636Z,35.04
2023-04-27T03:38:33.141Z,35.04
2023-04-27T03:41:03.122Z,36.07
2023-04-27T03:43:31.091Z,35.33
2023-04-27T03:45:59.171Z,35.90
2023-04-27T03:48:27.692Z,36.93
2023-04-27T03:50:56.806Z,37.19
2023-04-27T03:53:25.123Z,36.53
2023-04-27T03:55:53.496Z,37.16
2023-04-27T03:58:22.790Z,37.81
2023-04-27T04:01:10.230Z,37.28
2023-04-27T04:03:38.690Z,36.98
2023-04-27T04:06:09.215Z,36.47
2023-04-27T04:08:40.283Z,35.38
2023-04-27T04:11:08.388Z,36.08
2023-04-27T04:13:38.736Z,35.61
2023-04-27T04:16:08.370Z,36.20
2023-04-27T04:18:36.958Z,35.33
2023-04-27T04:21:05.724Z,34.74
2023-04-27T04:23:33.963Z,35.53
2023-04-27T04:26:02.321Z,34.97
2023-04-27T04:28:34.543Z,36.93
2023-04-27T04:31:05.598Z,36.54
2023-04-27T04:33:34.051Z,35.92
2023-04-27T04:36:04.581Z,35.31
2023-04-27T04:38:32.950Z,35.61
2023-04-27T04:41:01.517Z,35.23
2023-04-27T04:43:32.802Z,35.33
2023-04-27T04:46:06.434Z,34.74
2023-04-27T04:48:35.463Z,33.80
2023-04-27T04:51:03.271Z,34.35
2023-04-27T04:53:31.356Z,35.24
2023-04-27T04:55:59.262Z,36.19
2023-04-27T04:58:27.495Z,35.79
2023-04-27T05:00:55.304Z,34.87
2023-04-27T05:03:24.833Z,36.46
2023-04-27T05:05:52.716Z,35.95
2023-04-27T05:08:20.590Z,35.25
2023-04-27T05:10:51.443Z,35.65
2023-04-27T05:13:19.371Z,34.65
2023-04-27T05:15:47.390Z,34.22
2023-04-27T05:18:15.301Z,35.22
2023-04-27T05:20:44.780Z,35.10
2023-04-27T05:23:12.580Z,34.35
2023-04-27T05:25:42.393Z,34.39
2023-04-27T05:28:10.867Z,35.69
2023-04-27T05:30:39.109Z,35.18
2023-04-27T05:33:07.519Z,35.01
2023-04-27T05:35:36.147Z,34.87
2023-04-27T05:38:05.491Z,34.22
2023-04-27T05:40:33.335Z,33.27
2023-04-27T05:43:03.450Z,32.95
2023-04-27T05:45:31.437Z,33.04
2023-04-27T05:48:24.834Z,33.31
2023-04-27T05:51:00.357Z,33.45
2023-04-27T05:53:29.608Z,33.86
2023-04-27T05:55:59.209Z,33.55
2023-04-27T05:58:27.038Z,32.94
2023-04-27T06:00:55.148Z,33.60
2023-04-27T06:03:23.222Z,35.21
2023-04-27T06:05:58.169Z,35.07
2023-04-27T06:08:27.265Z,34.05
2023-04-27T06:10:56.602Z,32.70
2023-04-27T06:13:24.770Z,32.29
2023-04-27T06:15:52.892Z,32.79
2023-04-27T06:18:21.128Z,33.92
2023-04-27T06:20:49.028Z,32.94
2023-04-27T06:23:17.035Z,34.87
2023-04-27T06:25:45.115Z,33.17
2023-04-27T06:28:14.285Z,34.30
2023-04-27T06:30:43.312Z,33.81
2023-04-27T06:33:11.912Z,32.60
2023-04-27T06:35:40.308Z,31.76
2023-04-27T06:38:08.365Z,34.94
2023-04-27T06:40:37.027Z,34.11
2023-04-27T06:43:05.066Z,32.04
2023-04-27T06:45:34.350Z,34.98
2023-04-27T06:48:03.123Z,34.90
2023-04-27T06:50:31.325Z,34.66
2023-04-27T06:52:59.308Z,35.20
2023-04-27T06:55:27.243Z,33.45
2023-04-27T06:57:55.313Z,30.86
2023-04-27T07:00:23.394Z,30.92
2023-04-27T07:02:52.925Z,32.10
2023-04-27T07:05:21.305Z,31.80
2023-04-27T07:07:49.257Z,29.75
2023-04-27T07:10:17.314Z,30.27
2023-04-27T07:12:45.483Z,30.13
2023-04-27T07:15:13.666Z,33.23
2023-04-27T07:17:41.816Z,31.63
2023-04-27T07:20:11.544Z,30.40
2023-04-27T07:22:39.885Z,29.86
2023-04-27T07:25:08.437Z,28.90
2023-04-27T07:27:36.685Z,28.83
2023-04-27T07:30:05.622Z,31.52
2023-04-27T07:32:33.891Z,30.55
2023-04-27T07:35:01.856Z,28.63
2023-04-27T07:37:31.434Z,29.19
2023-04-27T07:40:00.003Z,28.37
2023-04-27T07:42:27.920Z,27.71
2023-04-27T07:44:57.162Z,26.85
2023-04-27T07:47:25.193Z,26.63
2023-04-27T07:49:53.110Z,26.70
2023-04-27T07:52:21.268Z,25.46
2023-04-27T07:54:50.987Z,25.88
2023-04-27T07:57:19.142Z,25.46
2023-04-27T07:59:47.487Z,25.95
2023-04-27T08:02:19.560Z,27.44
2023-04-27T08:04:48.922Z,27.04
2023-04-27T08:07:17.950Z,27.19
2023-04-27T08:09:46.162Z,27.07
2023-04-27T08:12:15.400Z,26.73
2023-04-27T08:14:43.187Z,25.49
2023-04-27T08:17:11.338Z,25.84
2023-04-27T08:19:39.203Z,26.47
2023-04-27T08:22:07.035Z,27.62
2023-04-27T08:24:34.967Z,29.86
2023-04-27T08:27:03.336Z,30.32
2023-04-27T08:29:32.718Z,29.70
2023-04-27T08:32:02.806Z,28.52
2023-04-27T08:34:31.017Z,27.15
2023-04-27T08:36:58.953Z,25.62
2023-04-27T08:39:26.783Z,24.03
2023-04-27T08:41:54.605Z,25.03
2023-04-27T08:44:22.729Z,25.85
2023-04-27T08:46:52.228Z,23.53
2023-04-27T08:49:20.808Z,23.81
2023-04-27T08:51:48.918Z,24.99
2023-04-27T08:54:16.853Z,26.22
2023-04-27T08:56:44.848Z,25.89
2023-04-27T08:59:17.244Z,24.13
2023-04-27T09:01:46.918Z,24.23
2023-04-27T09:04:17.749Z,24.72
2023-04-27T09:06:46.202Z,24.19
2023-04-27T09:09:23.426Z,23.37
2023-04-27T09:11:51.447Z,21.33
2023-04-27T09:14:20.985Z,21.64
2023-04-27T09:16:57.379Z,23.30
2023-04-27T09:19:27.505Z,23.24
2023-04-27T09:22:05.365Z,23.35
2023-04-27T09:24:33.607Z,24.06
2023-04-27T09:27:01.696Z,23.51
2023-04-27T09:29:36.644Z,23.41
2023-04-27T09:32:17.201Z,24.19
2023-04-27T09:34:46.573Z,23.10
2023-04-27T09:37:15.536Z,23.15
2023-04-27T09:39:43.827Z,22.71
2023-04-27T09:42:13.479Z,21.98
2023-04-27T09:44:41.328Z,22.68
2023-04-27T09:47:10.745Z,22.70
2023-04-27T09:49:38.921Z,22.54
2023-04-27T09:52:08.175Z,23.15
2023-04-27T09:54:37.600Z,23.13
2023-04-27T09:57:15.924Z,21.44
2023-04-27T10:00:02.860Z,21.70
2023-04-27T10:02:52.759Z,21.30
2023-04-27T10:05:37.005Z,22.08
2023-04-27T10:08:07.496Z,21.37
2023-04-27T10:10:44.477Z,22.20
2023-04-27T10:13:22.789Z,20.87
2023-04-27T10:15:51.249Z,20.80
2023-04-27T10:18:30.608Z,19.57
2023-04-27T10:20:59.144Z,20.54
2023-04-27T10:23:29.177Z,21.90
2023-04-27T10:25:57.229Z,20.60
2023-04-27T10:28:25.205Z,21.46
2023-04-27T10:30:53.360Z,23.24
2023-04-27T10:33:23.809Z,23.01
2023-04-27T10:35:56.552Z,20.99
2023-04-27T10:38:31.367Z,20.02
2023-04-27T10:41:01.889Z,19.05
2023-04-27T10:43:32.310Z,18.64
2023-04-27T10:46:09.282Z,18.09
2023-04-27T10:48:37.383Z,17.43
2023-04-27T10:51:06.596Z,17.45
2023-04-27T10:53:39.030Z,17.26
2023-04-27T10:56:08.034Z,17.17
2023-04-27T10:58:48.161Z,17.93
2023-04-27T11:01:25.419Z,19.91
2023-04-27T11:03:56.473Z,19.76
2023-04-27T11:06:24.639Z,18.56
2023-04-27T11:08:53.958Z,21.18
2023-04-27T11:11:22.601Z,21.08
2023-04-27T11:13:52.741Z,20.01
2023-04-27T11:16:20.848Z,19.54
2023-04-27T11:18:48.953Z,18.86
2023-04-27T11:21:17.741Z,19.32
2023-04-27T11:23:45.837Z,17.56
2023-04-27T11:26:17.219Z,17.42
2023-04-27T11:28:45.860Z,18.14
2023-04-27T11:31:13.906Z,19.14
2023-04-27T11:33:49.813Z,18.05
2023-04-27T11:36:18.160Z,17.41
2023-04-27T11:38:46.614Z,16.88
2023-04-27T11:41:16.071Z,15.78
2023-04-27T11:43:46.276Z,18.16
2023-04-27T11:46:14.216Z,17.36
2023-04-27T11:48:42.213Z,16.71
2023-04-27T11:51:12.496Z,17.16
2023-04-27T11:53:42.558Z,17.94
2023-04-27T11:56:12.234Z,17.30
2023-04-27T11:58:44.348Z,17.51
2023-04-27T12:01:13.062Z,17.34
2023-04-27T12:03:41.796Z,17.33
2023-04-27T12:06:27.609Z,17.08
2023-04-27T12:08:58.357Z,17.10
2023-04-27T12:11:27.720Z,16.46
2023-04-27T12:13:57.872Z,16.96
2023-04-27T12:16:25.964Z,16.84
2023-04-27T12:18:54.033Z,16.84
2023-04-27T12:21:22.250Z,15.89
2023-04-27T12:23:50.184Z,17.08
2023-04-27T12:26:18.495Z,18.02
2023-04-27T12:28:46.591Z,18.78
2023-04-27T12:31:18.874Z,19.56
2023-04-27T12:33:49.367Z,18.56
2023-04-27T12:36:17.584Z,19.14
2023-04-27T12:38:45.782Z,17.99
2023-04-27T12:41:13.838Z,17.48
2023-04-27T12:43:43.660Z,17.13
2023-04-27T12:46:11.888Z,17.09
2023-04-27T12:48:41.520Z,17.02
2023-04-27T12:51:09.619Z,17.23
2023-04-27T12:53:37.691Z,16.68
2023-04-27T12:56:06.663Z,17.09
2023-04-27T12:58:35.110Z,16.74
2023-04-27T13:01:03.242Z,15.81
2023-04-27T13:03:32.786Z,15.94
2023-04-27T13:06:02.258Z,16.58
2023-04-27T13:08:30.851Z,16.51
2023-04-27T13:10:58.923Z,16.69
2023-04-27T13:13:27.100Z,16.71
2023-04-27T13:15:56.406Z,16.58
2023-04-27T13:18:24.631Z,16.38
2023-04-27T13:20:52.721Z,16.84
2023-04-27T13:23:22.737Z,16.78
2023-04-27T13:25:53.703Z,17.04
2023-04-27T13:28:21.841Z,15.66
2023-04-27T13:30:50.078Z,15.74
2023-04-27T13:33:23.266Z,16.84
2023-04-27T13:35:52.126Z,16.81
2023-04-27T13:38:20.916Z,16.62
2023-04-27T13:40:50.433Z,15.76
2023-04-27T13:43:18.458Z,16.14
2023-04-27T13:45:46.377Z,17.64
2023-04-27T13:48:14.285Z,17.07
2023-04-27T13:50:42.236Z,17.00
2023-04-27T13:53:10.266Z,18.43
2023-04-27T13:55:38.230Z,17.12
2023-04-27T13:58:07.924Z,18.12
2023-04-27T14:00:35.862Z,17.56
2023-04-27T14:03:04.942Z,19.00
2023-04-27T14:05:33.025Z,19.11
2023-04-27T14:08:01.120Z,18.05
2023-04-27T14:10:29.111Z,18.12
2023-04-27T14:12:57.942Z,17.68
2023-04-27T14:15:27.491Z,16.93
2023-04-27T14:17:55.450Z,15.89
2023-04-27T14:20:23.459Z,16.81
2023-04-27T14:22:51.448Z,16.27
2023-04-27T14:25:19.649Z,16.77
2023-04-27T14:27:47.707Z,16.52
2023-04-27T14:30:16.337Z,17.28
2023-04-27T14:32:46.201Z,16.77
2023-04-27T14:35:14.154Z,17.76
2023-04-27T14:37:42.046Z,17.74
2023-04-27T14:40:11.080Z,17.46
2023-04-27T14:42:39.011Z,17.16
2023-04-27T14:45:08.198Z,18.90
2023-04-27T14:47:36.040Z,16.87
2023-04-27T14:50:06.571Z,18.33
2023-04-27T14:52:34.429Z,18.55
2023-04-27T14:55:02.243Z,17.26
2023-04-27T14:57:30.415Z,16.74
2023-04-27T14:59:58.999Z,16.92
2023-04-27T15:02:27.442Z,16.97
2023-04-27T15:04:55.478Z,16.38
2023-04-27T15:07:24.881Z,15.81
2023-04-27T15:09:54.213Z,15.93
2023-04-27T15:12:23.023Z,16.12
2023-04-27T15:14:52.765Z,15.83
2023-04-27T15:17:20.714Z,15.78
2023-04-27T15:19:48.642Z,13.45
2023-04-27T15:22:16.471Z,12.58
2023-04-27T15:24:45.762Z,13.80
2023-04-27T15:27:14.162Z,12.53
2023-04-27T15:29:42.518Z,13.50
2023-04-27T15:32:10.750Z,14.72
2023-04-27T15:34:38.723Z,15.96
2023-04-27T15:37:06.820Z,14.58
2023-04-27T15:39:34.780Z,13.29
2023-04-27T15:42:04.725Z,13.48
2023-04-27T15:44:32.678Z,12.67
2023-04-27T15:47:00.759Z,13.48
2023-04-27T15:49:30.136Z,11.92
2023-04-27T15:51:59.271Z,13.23
2023-04-27T15:54:27.308Z,13.08
2023-04-27T15:56:55.408Z,13.60
2023-04-27T15:59:30.844Z,12.01
2023-04-27T16:01:59.734Z,11.50
2023-04-27T16:04:27.934Z,11.13
2023-04-27T16:06:56.050Z,11.23
2023-04-27T16:09:25.538Z,12.89
2023-04-27T16:11:56.012Z,13.26
2023-04-27T16:14:25.662Z,12.73
2023-04-27T16:16:55.017Z,12.13
2023-04-27T16:19:23.534Z,12.90
2023-04-27T16:21:51.574Z,14.88
2023-04-27T16:24:19.953Z,13.68
2023-04-27T16:26:48.524Z,13.01
2023-04-27T16:29:16.730Z,13.86
2023-04-27T16:31:46.558Z,12.86
2023-04-27T16:34:14.494Z,12.54
2023-04-27T16:36:43.336Z,13.42
2023-04-27T16:39:11.549Z,13.60
2023-04-27T16:41:39.798Z,14.37
2023-04-27T16:44:07.679Z,14.18
2023-04-27T16:46:35.895Z,14.84
2023-04-27T16:49:05.273Z,14.32
2023-04-27T16:51:33.849Z,14.97
2023-04-27T16:54:02.572Z,14.26
2023-04-27T16:56:32.509Z,14.59
2023-04-27T16:59:01.154Z,15.10
2023-04-27T17:01:30.056Z,15.45
2023-04-27T17:03:59.000Z,15.42
2023-04-27T17:06:29.978Z,16.01
2023-04-27T17:08:58.649Z,16.88
2023-04-27T17:11:26.713Z,16.24
2023-04-27T17:13:54.782Z,15.39
2023-04-27T17:16:23.491Z,16.70
2023-04-27T17:18:51.431Z,17.24
2023-04-27T17:21:23.080Z,17.83
2023-04-27T17:23:53.208Z,18.35
2023-04-27T17:26:21.725Z,17.72
2023-04-27T17:28:50.356Z,17.02
2023-04-27T17:31:18.496Z,16.51
2023-04-27T17:33:46.720Z,16.94
2023-04-27T17:36:15.025Z,19.02
2023-04-27T17:38:43.038Z,18.50
2023-04-27T17:41:12.150Z,18.53
2023-04-27T17:43:40.061Z,18.35
2023-04-27T17:46:09.710Z,18.03
2023-04-27T17:48:38.078Z,17.89
2023-04-27T17:51:06.096Z,18.21
2023-04-27T17:53:34.149Z,19.03
2023-04-27T17:56:01.953Z,19.17
2023-04-27T17:58:32.420Z,18.63
2023-04-27T18:01:00.974Z,19.40
2023-04-27T18:03:29.096Z,19.16
2023-04-27T18:05:57.298Z,20.22
2023-04-27T18:08:25.091Z,20.08
2023-04-27T18:10:52.943Z,19.89
2023-04-27T18:13:21.119Z,20.16
2023-04-27T18:15:50.623Z,20.70
2023-04-27T18:18:22.590Z,20.36
2023-04-27T18:20:52.837Z,20.63
2023-04-27T18:23:20.957Z,19.82
2023-04-27T18:25:49.597Z,20.39
2023-04-27T18:28:17.660Z,20.45
2023-04-27T18:30:45.520Z,20.47
2023-04-27T18:33:17.379Z,20.75
2023-04-27T18:35:45.320Z,21.14
2023-04-27T18:38:13.145Z,21.27
2023-04-27T18:40:41.528Z,21.25
2023-04-27T18:43:09.949Z,20.67
2023-04-27T18:45:37.892Z,21.24
2023-04-27T18:48:05.992Z,21.07
2023-04-27T18:50:35.367Z,21.54
2023-04-27T18:53:03.247Z,21.43
2023-04-27T18:55:31.534Z,20.67
2023-04-27T18:57:59.405Z,21.37
2023-04-27T19:00:28.604Z,20.96
2023-04-27T19:02:56.845Z,21.10
2023-04-27T19:05:25.064Z,21.33
2023-04-27T19:07:54.599Z,20.89
2023-04-27T19:10:22.427Z,21.91
2023-04-27T19:12:51.279Z,21.00
2023-04-27T19:15:19.013Z,21.75
2023-04-27T19:17:48.757Z,21.90
2023-04-27T19:20:20.776Z,21.52
2023-04-27T19:22:48.800Z,21.23
2023-04-27T19:25:17.999Z,21.90
2023-04-27T19:27:46.149Z,21.35
2023-04-27T19:30:14.175Z,21.66
2023-04-27T19:32:43.508Z,21.59
2023-04-27T19:35:12.492Z,21.61
2023-04-27T19:37:40.374Z,22.32
2023-04-27T19:40:09.450Z,22.47
2023-04-27T19:42:39.180Z,22.55
2023-04-27T19:45:08.430Z,22.25
2023-04-27T19:47:36.404Z,22.63
2023-04-27T19:50:04.918Z,22.55
2023-04-27T19:52:33.067Z,21.85
2023-04-27T19:55:01.004Z,22.05
2023-04-27T19:57:28.859Z,21.94
2023-04-27T19:59:58.164Z,22.53
2023-04-27T20:02:26.201Z,22.23
2023-04-27T20:04:54.563Z,22.72
2023-04-27T20:07:22.942Z,22.53
2023-04-27T20:09:50.814Z,23.39
2023-04-27T20:12:37.389Z,23.98
2023-04-27T20:15:09.494Z,23.55
2023-04-27T20:17:37.717Z,23.38
2023-04-27T20:20:09.996Z,23.29
2023-04-27T20:22:38.304Z,23.04
2023-04-27T20:25:07.886Z,23.04
2023-04-27T20:27:35.957Z,22.59
2023-04-27T20:30:04.189Z,22.45
2023-04-27T20:32:33.528Z,23.07
2023-04-27T20:35:02.569Z,23.18
2023-04-27T20:37:32.141Z,23.59
2023-04-27T20:40:00.916Z,23.33
2023-04-27T20:42:29.563Z,23.87
2023-04-27T20:44:57.470Z,23.25
2023-04-27T20:47:25.886Z,23.81
2023-04-27T20:49:55.126Z,23.56
2023-04-27T20:52:23.108Z,23.00
2023-04-27T20:54:50.997Z,24.04
2023-04-27T20:57:18.988Z,24.48
2023-04-27T20:59:46.914Z,23.82
2023-04-27T21:02:15.192Z,24.17
2023-04-27T21:04:43.251Z,24.12
2023-04-27T21:07:12.872Z,23.11
2023-04-27T21:09:43.115Z,23.83
2023-04-27T21:12:11.288Z,23.18
2023-04-27T21:14:39.502Z,23.45
2023-04-27T21:17:07.719Z,23.58
2023-04-27T21:19:35.860Z,24.46
2023-04-27T21:22:03.834Z,24.43
2023-04-27T21:24:33.174Z,24.10
2023-04-27T21:27:01.396Z,23.97
2023-04-27T21:29:29.278Z,24.08
2023-04-27T21:31:57.131Z,24.53
2023-04-27T21:34:25.104Z,25.58
2023-04-27T21:36:53.057Z,24.83
2023-04-27T21:39:21.240Z,23.76
2023-04-27T21:41:50.486Z,24.27
2023-04-27T21:44:18.387Z,24.11
2023-04-27T21:46:46.493Z,25.14
2023-04-27T21:49:14.502Z,25.80
2023-04-27T21:51:42.418Z,25.19
2023-04-27T21:54:10.607Z,24.92
2023-04-27T21:56:38.746Z,24.75
2023-04-27T21:59:08.106Z,25.33
2023-04-27T22:01:37.828Z,25.31
2023-04-27T22:04:06.382Z,25.67
2023-04-27T22:06:34.461Z,25.66
2023-04-27T22:09:02.908Z,25.87
2023-04-27T22:11:31.309Z,25.79
2023-04-27T22:13:59.287Z,26.19
2023-04-27T22:16:30.153Z,25.81
2023-04-27T22:18:58.530Z,25.33
2023-04-27T22:21:27.283Z,25.67
2023-04-27T22:23:55.353Z,25.55
2023-04-27T22:26:23.533Z,25.61
2023-04-27T22:28:51.460Z,26.43
2023-04-27T22:31:19.470Z,26.35
2023-04-27T22:33:48.771Z,26.45
2023-04-27T22:36:16.678Z,26.07
2023-04-27T22:38:45.011Z,25.80
2023-04-27T22:41:13.035Z,25.38
2023-04-27T22:43:40.912Z,25.47
2023-04-27T22:46:08.816Z,26.13
2023-04-27T22:48:36.913Z,25.93
2023-04-27T22:51:10.604Z,26.34
2023-04-27T22:53:38.834Z,26.14
2023-04-27T22:56:07.769Z,26.43
2023-04-27T22:58:36.663Z,27.03
2023-04-27T23:01:05.060Z,26.94
2023-04-27T23:03:33.243Z,26.96
2023-04-27T23:06:01.425Z,27.17
2023-04-27T23:08:30.838Z,26.62
2023-04-27T23:10:58.836Z,27.14
2023-04-27T23:13:27.836Z,26.88
2023-04-27T23:15:55.899Z,27.47
2023-04-27T23:18:23.962Z,27.02
2023-04-27T23:20:54.628Z,26.99
2023-04-27T23:23:23.099Z,26.60
2023-04-27T23:25:52.521Z,26.15
2023-04-27T23:28:20.812Z,25.91
2023-04-27T23:30:53.868Z,26.69
2023-04-27T23:33:22.124Z,27.05
2023-04-27T23:35:49.893Z,26.54
2023-04-27T23:38:17.948Z,26.96
2023-04-27T23:40:45.744Z,27.99
2023-04-27T23:43:14.949Z,28.72
2023-04-27T23:45:42.912Z,28.85
2023-04-27T23:48:10.739Z,29.24
2023-04-27T23:50:38.588Z,29.63
2023-04-27T23:53:06.388Z,28.83
2023-04-27T23:55:35.559Z,29.40
2023-04-27T23:58:03.606Z,28.90
